sensor_id;sensor_type;location;lat;lon;timestamp;P1;durP1;ratioP1;P2;durP2;ratioP2
18435;SDS011;9346;52.006;4.720;2023-09-07T00:01:17;5.00;;;4.00;;
18435;SDS011;9346;52.006;4.720;2023-09-07T00:03:44;4.33;;;3.87;;
18435;SDS011;9346;52.006;4.720;2023-09-07T00:06:11;4.43;;;3.53;;
18435;SDS011;9346;52.006;4.720;2023-09-07T00:08:38;4.60;;;3.97;;
18435;SDS011;9346;52.006;4.720;2023-09-07T00:11:05;5.20;;;3.53;;
18435;SDS011;9346;52.006;4.720;2023-09-07T00:13:34;5.57;;;4.33;;
18435;SDS011;9346;52.006;4.720;2023-09-07T00:16:02;5.70;;;4.23;;
18435;SDS011;9346;52.006;4.720;2023-09-07T00:18:30;4.87;;;4.03;;
18435;SDS011;9346;52.006;4.720;2023-09-07T00:20:57;6.33;;;4.77;;
18435;SDS011;9346;52.006;4.720;2023-09-07T00:23:24;5.80;;;4.80;;
18435;SDS011;9346;52.006;4.720;2023-09-07T00:25:51;7.13;;;4.53;;
18435;SDS011;9346;52.006;4.720;2023-09-07T00:28:18;5.17;;;4.27;;
18435;SDS011;9346;52.006;4.720;2023-09-07T00:30:46;5.80;;;5.03;;
18435;SDS011;9346;52.006;4.720;2023-09-07T00:33:13;6.90;;;4.73;;
18435;SDS011;9346;52.006;4.720;2023-09-07T00:35:39;6.00;;;4.73;;
18435;SDS011;9346;52.006;4.720;2023-09-07T00:38:06;5.47;;;4.47;;
18435;SDS011;9346;52.006;4.720;2023-09-07T00:40:33;5.80;;;4.97;;
18435;SDS011;9346;52.006;4.720;2023-09-07T00:43:01;6.43;;;4.80;;
18435;SDS011;9346;52.006;4.720;2023-09-07T00:45:29;7.63;;;4.73;;
18435;SDS011;9346;52.006;4.720;2023-09-07T00:47:58;5.23;;;4.63;;
18435;SDS011;9346;52.006;4.720;2023-09-07T00:50:25;6.77;;;4.67;;
18435;SDS011;9346;52.006;4.720;2023-09-07T00:52:51;5.00;;;4.43;;
18435;SDS011;9346;52.006;4.720;2023-09-07T00:55:18;7.80;;;4.93;;
18435;SDS011;9346;52.006;4.720;2023-09-07T00:57:46;6.67;;;5.40;;
18435;SDS011;9346;52.006;4.720;2023-09-07T01:00:13;5.60;;;4.63;;
18435;SDS011;9346;52.006;4.720;2023-09-07T01:02:40;7.67;;;4.60;;
18435;SDS011;9346;52.006;4.720;2023-09-07T01:05:12;7.73;;;4.67;;
18435;SDS011;9346;52.006;4.720;2023-09-07T01:07:40;6.30;;;5.13;;
18435;SDS011;9346;52.006;4.720;2023-09-07T01:10:12;6.73;;;4.80;;
18435;SDS011;9346;52.006;4.720;2023-09-07T01:12:39;9.23;;;5.00;;
18435;SDS011;9346;52.006;4.720;2023-09-07T01:15:06;6.57;;;4.90;;
18435;SDS011;9346;52.006;4.720;2023-09-07T01:17:34;5.70;;;4.80;;
18435;SDS011;9346;52.006;4.720;2023-09-07T01:20:03;6.73;;;5.60;;
18435;SDS011;9346;52.006;4.720;2023-09-07T01:22:36;5.77;;;5.03;;
18435;SDS011;9346;52.006;4.720;2023-09-07T01:25:04;5.50;;;4.77;;
18435;SDS011;9346;52.006;4.720;2023-09-07T01:27:34;5.93;;;4.73;;
18435;SDS011;9346;52.006;4.720;2023-09-07T01:30:02;7.20;;;5.30;;
18435;SDS011;9346;52.006;4.720;2023-09-07T01:32:30;6.97;;;5.93;;
18435;SDS011;9346;52.006;4.720;2023-09-07T01:34:57;6.83;;;5.37;;
18435;SDS011;9346;52.006;4.720;2023-09-07T01:37:27;6.43;;;4.93;;
18435;SDS011;9346;52.006;4.720;2023-09-07T01:39:55;6.37;;;5.20;;
18435;SDS011;9346;52.006;4.720;2023-09-07T01:42:22;8.80;;;5.70;;
18435;SDS011;9346;52.006;4.720;2023-09-07T01:44:49;7.47;;;5.40;;
18435;SDS011;9346;52.006;4.720;2023-09-07T01:47:16;7.93;;;5.87;;
18435;SDS011;9346;52.006;4.720;2023-09-07T01:49:43;9.03;;;6.13;;
18435;SDS011;9346;52.006;4.720;2023-09-07T01:52:10;12.00;;;5.80;;
18435;SDS011;9346;52.006;4.720;2023-09-07T01:54:37;6.93;;;5.57;;
18435;SDS011;9346;52.006;4.720;2023-09-07T01:57:05;6.57;;;5.63;;
18435;SDS011;9346;52.006;4.720;2023-09-07T01:59:32;9.10;;;6.77;;
18435;SDS011;9346;52.006;4.720;2023-09-07T02:01:59;6.87;;;5.53;;
18435;SDS011;9346;52.006;4.720;2023-09-07T02:04:25;8.83;;;5.70;;
18435;SDS011;9346;52.006;4.720;2023-09-07T02:06:52;6.20;;;5.60;;
18435;SDS011;9346;52.006;4.720;2023-09-07T02:09:19;7.60;;;6.37;;
18435;SDS011;9346;52.006;4.720;2023-09-07T02:11:45;7.83;;;6.63;;
18435;SDS011;9346;52.006;4.720;2023-09-07T02:14:15;7.97;;;6.07;;
18435;SDS011;9346;52.006;4.720;2023-09-07T02:16:42;8.43;;;5.93;;
18435;SDS011;9346;52.006;4.720;2023-09-07T02:19:09;7.90;;;5.97;;
18435;SDS011;9346;52.006;4.720;2023-09-07T02:21:36;7.57;;;5.97;;
18435;SDS011;9346;52.006;4.720;2023-09-07T02:24:03;8.13;;;6.67;;
18435;SDS011;9346;52.006;4.720;2023-09-07T02:26:30;6.80;;;6.10;;
18435;SDS011;9346;52.006;4.720;2023-09-07T02:28:57;8.53;;;6.77;;
18435;SDS011;9346;52.006;4.720;2023-09-07T02:31:25;7.43;;;6.10;;
18435;SDS011;9346;52.006;4.720;2023-09-07T02:33:52;9.20;;;6.57;;
18435;SDS011;9346;52.006;4.720;2023-09-07T02:36:19;8.27;;;6.10;;
18435;SDS011;9346;52.006;4.720;2023-09-07T02:38:46;7.57;;;6.37;;
18435;SDS011;9346;52.006;4.720;2023-09-07T02:41:12;9.77;;;7.07;;
18435;SDS011;9346;52.006;4.720;2023-09-07T02:43:39;7.80;;;6.27;;
18435;SDS011;9346;52.006;4.720;2023-09-07T02:46:06;10.23;;;7.10;;
18435;SDS011;9346;52.006;4.720;2023-09-07T02:48:34;9.00;;;6.73;;
18435;SDS011;9346;52.006;4.720;2023-09-07T02:51:01;8.27;;;6.83;;
18435;SDS011;9346;52.006;4.720;2023-09-07T02:53:28;10.57;;;6.53;;
18435;SDS011;9346;52.006;4.720;2023-09-07T02:55:55;7.40;;;6.27;;
18435;SDS011;9346;52.006;4.720;2023-09-07T02:58:22;7.73;;;6.30;;
18435;SDS011;9346;52.006;4.720;2023-09-07T03:00:49;7.63;;;6.53;;
18435;SDS011;9346;52.006;4.720;2023-09-07T03:03:16;9.80;;;7.27;;
18435;SDS011;9346;52.006;4.720;2023-09-07T03:05:46;8.67;;;6.67;;
18435;SDS011;9346;52.006;4.720;2023-09-07T03:08:13;7.37;;;6.53;;
18435;SDS011;9346;52.006;4.720;2023-09-07T03:10:39;8.90;;;7.13;;
18435;SDS011;9346;52.006;4.720;2023-09-07T03:13:08;8.97;;;6.67;;
18435;SDS011;9346;52.006;4.720;2023-09-07T03:15:34;8.67;;;7.33;;
18435;SDS011;9346;52.006;4.720;2023-09-07T03:18:01;12.03;;;8.70;;
18435;SDS011;9346;52.006;4.720;2023-09-07T03:20:28;9.27;;;6.57;;
18435;SDS011;9346;52.006;4.720;2023-09-07T03:22:56;9.90;;;7.67;;
18435;SDS011;9346;52.006;4.720;2023-09-07T03:25:23;7.43;;;6.50;;
18435;SDS011;9346;52.006;4.720;2023-09-07T03:27:50;9.67;;;6.70;;
18435;SDS011;9346;52.006;4.720;2023-09-07T03:30:17;8.80;;;7.10;;
18435;SDS011;9346;52.006;4.720;2023-09-07T03:32:44;11.53;;;7.87;;
18435;SDS011;9346;52.006;4.720;2023-09-07T03:35:11;10.50;;;8.20;;
18435;SDS011;9346;52.006;4.720;2023-09-07T03:37:38;10.93;;;7.87;;
18435;SDS011;9346;52.006;4.720;2023-09-07T03:40:08;10.43;;;7.40;;
18435;SDS011;9346;52.006;4.720;2023-09-07T03:42:35;9.37;;;7.23;;
18435;SDS011;9346;52.006;4.720;2023-09-07T03:45:02;9.23;;;7.43;;
18435;SDS011;9346;52.006;4.720;2023-09-07T03:47:30;12.10;;;7.50;;
18435;SDS011;9346;52.006;4.720;2023-09-07T03:49:56;9.87;;;6.83;;
18435;SDS011;9346;52.006;4.720;2023-09-07T03:52:24;10.87;;;8.00;;
18435;SDS011;9346;52.006;4.720;2023-09-07T03:54:51;10.07;;;7.00;;
18435;SDS011;9346;52.006;4.720;2023-09-07T03:57:23;9.57;;;7.70;;
18435;SDS011;9346;52.006;4.720;2023-09-07T03:59:51;11.97;;;8.57;;
18435;SDS011;9346;52.006;4.720;2023-09-07T04:02:17;11.60;;;8.27;;
18435;SDS011;9346;52.006;4.720;2023-09-07T04:04:47;9.90;;;7.40;;
18435;SDS011;9346;52.006;4.720;2023-09-07T04:07:15;9.83;;;7.20;;
18435;SDS011;9346;52.006;4.720;2023-09-07T04:09:42;9.90;;;7.63;;
18435;SDS011;9346;52.006;4.720;2023-09-07T04:12:10;12.53;;;8.60;;
18435;SDS011;9346;52.006;4.720;2023-09-07T04:14:39;10.80;;;7.53;;
18435;SDS011;9346;52.006;4.720;2023-09-07T04:17:07;10.30;;;7.20;;
18435;SDS011;9346;52.006;4.720;2023-09-07T04:19:33;8.97;;;7.33;;
18435;SDS011;9346;52.006;4.720;2023-09-07T04:22:00;10.03;;;8.50;;
18435;SDS011;9346;52.006;4.720;2023-09-07T04:24:27;12.80;;;8.23;;
18435;SDS011;9346;52.006;4.720;2023-09-07T04:26:57;10.13;;;7.57;;
18435;SDS011;9346;52.006;4.720;2023-09-07T04:29:24;11.07;;;8.43;;
18435;SDS011;9346;52.006;4.720;2023-09-07T04:31:54;10.73;;;8.23;;
18435;SDS011;9346;52.006;4.720;2023-09-07T04:34:21;11.67;;;8.03;;
18435;SDS011;9346;52.006;4.720;2023-09-07T04:36:48;13.03;;;9.27;;
18435;SDS011;9346;52.006;4.720;2023-09-07T04:39:15;12.23;;;8.40;;
18435;SDS011;9346;52.006;4.720;2023-09-07T04:41:42;11.50;;;8.57;;
18435;SDS011;9346;52.006;4.720;2023-09-07T04:44:09;11.00;;;8.00;;
18435;SDS011;9346;52.006;4.720;2023-09-07T04:46:36;10.10;;;8.03;;
18435;SDS011;9346;52.006;4.720;2023-09-07T04:49:04;12.00;;;8.23;;
18435;SDS011;9346;52.006;4.720;2023-09-07T04:51:31;9.63;;;7.47;;
18435;SDS011;9346;52.006;4.720;2023-09-07T04:53:57;11.60;;;8.50;;
18435;SDS011;9346;52.006;4.720;2023-09-07T04:56:24;14.00;;;8.60;;
18435;SDS011;9346;52.006;4.720;2023-09-07T04:58:53;11.07;;;8.30;;
18435;SDS011;9346;52.006;4.720;2023-09-07T05:01:20;15.03;;;8.27;;
18435;SDS011;9346;52.006;4.720;2023-09-07T05:03:47;9.63;;;8.03;;
18435;SDS011;9346;52.006;4.720;2023-09-07T05:06:17;8.40;;;7.47;;
18435;SDS011;9346;52.006;4.720;2023-09-07T05:08:44;10.27;;;7.23;;
18435;SDS011;9346;52.006;4.720;2023-09-07T05:11:11;12.57;;;8.20;;
18435;SDS011;9346;52.006;4.720;2023-09-07T05:13:38;12.37;;;8.53;;
18435;SDS011;9346;52.006;4.720;2023-09-07T05:16:05;11.20;;;8.03;;
18435;SDS011;9346;52.006;4.720;2023-09-07T05:18:32;14.33;;;8.27;;
18435;SDS011;9346;52.006;4.720;2023-09-07T05:20:58;13.20;;;8.77;;
18435;SDS011;9346;52.006;4.720;2023-09-07T05:23:27;11.63;;;8.27;;
18435;SDS011;9346;52.006;4.720;2023-09-07T05:25:54;12.30;;;8.40;;
18435;SDS011;9346;52.006;4.720;2023-09-07T05:28:22;11.80;;;8.53;;
18435;SDS011;9346;52.006;4.720;2023-09-07T05:30:48;10.53;;;7.90;;
18435;SDS011;9346;52.006;4.720;2023-09-07T05:33:16;11.50;;;8.00;;
18435;SDS011;9346;52.006;4.720;2023-09-07T05:35:44;13.37;;;8.77;;
18435;SDS011;9346;52.006;4.720;2023-09-07T05:38:13;11.33;;;7.60;;
18435;SDS011;9346;52.006;4.720;2023-09-07T05:40:42;13.97;;;8.30;;
18435;SDS011;9346;52.006;4.720;2023-09-07T05:43:10;14.40;;;8.27;;
18435;SDS011;9346;52.006;4.720;2023-09-07T05:45:38;12.03;;;8.10;;
18435;SDS011;9346;52.006;4.720;2023-09-07T05:48:06;11.67;;;7.97;;
18435;SDS011;9346;52.006;4.720;2023-09-07T05:50:35;13.17;;;8.33;;
18435;SDS011;9346;52.006;4.720;2023-09-07T05:53:03;10.10;;;7.70;;
18435;SDS011;9346;52.006;4.720;2023-09-07T05:55:30;12.13;;;8.23;;
18435;SDS011;9346;52.006;4.720;2023-09-07T05:57:59;11.07;;;7.93;;
18435;SDS011;9346;52.006;4.720;2023-09-07T06:00:26;10.20;;;7.83;;
18435;SDS011;9346;52.006;4.720;2023-09-07T06:02:53;12.93;;;8.67;;
18435;SDS011;9346;52.006;4.720;2023-09-07T06:05:22;12.50;;;8.63;;
18435;SDS011;9346;52.006;4.720;2023-09-07T06:07:49;10.50;;;8.30;;
18435;SDS011;9346;52.006;4.720;2023-09-07T06:10:16;12.97;;;8.20;;
18435;SDS011;9346;52.006;4.720;2023-09-07T06:12:45;10.97;;;7.27;;
18435;SDS011;9346;52.006;4.720;2023-09-07T06:15:13;11.47;;;7.83;;
18435;SDS011;9346;52.006;4.720;2023-09-07T06:17:41;9.00;;;7.33;;
18435;SDS011;9346;52.006;4.720;2023-09-07T06:20:09;11.00;;;8.70;;
18435;SDS011;9346;52.006;4.720;2023-09-07T06:22:35;10.70;;;8.60;;
18435;SDS011;9346;52.006;4.720;2023-09-07T06:25:02;10.43;;;8.43;;
18435;SDS011;9346;52.006;4.720;2023-09-07T06:27:29;11.13;;;8.50;;
18435;SDS011;9346;52.006;4.720;2023-09-07T06:29:56;16.90;;;9.47;;
18435;SDS011;9346;52.006;4.720;2023-09-07T06:32:24;12.53;;;8.57;;
18435;SDS011;9346;52.006;4.720;2023-09-07T06:34:52;11.80;;;8.57;;
18435;SDS011;9346;52.006;4.720;2023-09-07T06:37:19;10.57;;;8.60;;
18435;SDS011;9346;52.006;4.720;2023-09-07T06:39:46;13.17;;;8.93;;
18435;SDS011;9346;52.006;4.720;2023-09-07T06:42:13;9.90;;;7.27;;
18435;SDS011;9346;52.006;4.720;2023-09-07T06:44:41;9.47;;;7.60;;
18435;SDS011;9346;52.006;4.720;2023-09-07T06:47:08;11.10;;;8.17;;
18435;SDS011;9346;52.006;4.720;2023-09-07T06:49:37;12.13;;;8.53;;
18435;SDS011;9346;52.006;4.720;2023-09-07T06:52:04;11.70;;;8.27;;
18435;SDS011;9346;52.006;4.720;2023-09-07T06:54:32;10.00;;;7.60;;
18435;SDS011;9346;52.006;4.720;2023-09-07T06:56:59;10.83;;;8.37;;
18435;SDS011;9346;52.006;4.720;2023-09-07T06:59:26;10.17;;;7.87;;
18435;SDS011;9346;52.006;4.720;2023-09-07T07:01:53;13.83;;;8.33;;
18435;SDS011;9346;52.006;4.720;2023-09-07T07:04:19;13.17;;;8.67;;
18435;SDS011;9346;52.006;4.720;2023-09-07T07:06:48;10.37;;;8.13;;
18435;SDS011;9346;52.006;4.720;2023-09-07T07:09:15;15.43;;;8.80;;
18435;SDS011;9346;52.006;4.720;2023-09-07T07:11:42;12.13;;;8.60;;
18435;SDS011;9346;52.006;4.720;2023-09-07T07:14:09;12.40;;;8.67;;
18435;SDS011;9346;52.006;4.720;2023-09-07T07:16:37;11.60;;;8.40;;
18435;SDS011;9346;52.006;4.720;2023-09-07T07:19:04;10.67;;;7.60;;
18435;SDS011;9346;52.006;4.720;2023-09-07T07:21:31;11.43;;;8.47;;
18435;SDS011;9346;52.006;4.720;2023-09-07T07:23:59;10.07;;;7.27;;
18435;SDS011;9346;52.006;4.720;2023-09-07T07:26:26;16.33;;;8.60;;
18435;SDS011;9346;52.006;4.720;2023-09-07T07:28:55;9.40;;;7.10;;
18435;SDS011;9346;52.006;4.720;2023-09-07T07:31:21;10.23;;;7.37;;
18435;SDS011;9346;52.006;4.720;2023-09-07T07:33:48;12.43;;;8.53;;
18435;SDS011;9346;52.006;4.720;2023-09-07T07:36:15;11.97;;;8.43;;
18435;SDS011;9346;52.006;4.720;2023-09-07T07:38:41;11.20;;;7.97;;
18435;SDS011;9346;52.006;4.720;2023-09-07T07:41:10;9.80;;;7.33;;
18435;SDS011;9346;52.006;4.720;2023-09-07T07:43:37;9.67;;;6.60;;
18435;SDS011;9346;52.006;4.720;2023-09-07T07:46:03;10.27;;;6.83;;
18435;SDS011;9346;52.006;4.720;2023-09-07T07:48:30;11.13;;;8.13;;
18435;SDS011;9346;52.006;4.720;2023-09-07T07:51:01;10.37;;;7.30;;
18435;SDS011;9346;52.006;4.720;2023-09-07T07:53:29;9.20;;;6.83;;
18435;SDS011;9346;52.006;4.720;2023-09-07T07:55:56;8.90;;;6.50;;
18435;SDS011;9346;52.006;4.720;2023-09-07T07:58:24;8.13;;;6.10;;
18435;SDS011;9346;52.006;4.720;2023-09-07T08:00:51;9.30;;;6.17;;
18435;SDS011;9346;52.006;4.720;2023-09-07T08:03:17;6.93;;;5.50;;
18435;SDS011;9346;52.006;4.720;2023-09-07T08:05:45;6.83;;;5.60;;
18435;SDS011;9346;52.006;4.720;2023-09-07T08:08:13;8.93;;;6.20;;
18435;SDS011;9346;52.006;4.720;2023-09-07T08:10:39;8.50;;;6.77;;
18435;SDS011;9346;52.006;4.720;2023-09-07T08:13:07;8.90;;;5.73;;
18435;SDS011;9346;52.006;4.720;2023-09-07T08:15:35;10.60;;;7.13;;
18435;SDS011;9346;52.006;4.720;2023-09-07T08:18:02;7.67;;;6.37;;
18435;SDS011;9346;52.006;4.720;2023-09-07T08:20:29;6.57;;;5.43;;
18435;SDS011;9346;52.006;4.720;2023-09-07T08:22:58;9.00;;;5.70;;
18435;SDS011;9346;52.006;4.720;2023-09-07T08:25:30;8.20;;;6.20;;
18435;SDS011;9346;52.006;4.720;2023-09-07T08:27:56;7.27;;;5.80;;
18435;SDS011;9346;52.006;4.720;2023-09-07T08:30:24;7.77;;;6.23;;
18435;SDS011;9346;52.006;4.720;2023-09-07T08:32:54;6.30;;;5.40;;
18435;SDS011;9346;52.006;4.720;2023-09-07T08:35:22;6.80;;;6.07;;
18435;SDS011;9346;52.006;4.720;2023-09-07T08:37:52;6.63;;;5.57;;
18435;SDS011;9346;52.006;4.720;2023-09-07T08:40:18;7.40;;;6.07;;
18435;SDS011;9346;52.006;4.720;2023-09-07T08:42:47;8.77;;;5.33;;
18435;SDS011;9346;52.006;4.720;2023-09-07T08:45:14;8.83;;;6.00;;
18435;SDS011;9346;52.006;4.720;2023-09-07T08:47:46;12.27;;;6.57;;
18435;SDS011;9346;52.006;4.720;2023-09-07T08:50:16;10.37;;;5.50;;
18435;SDS011;9346;52.006;4.720;2023-09-07T08:52:45;8.67;;;6.00;;
18435;SDS011;9346;52.006;4.720;2023-09-07T08:55:12;8.53;;;6.20;;
18435;SDS011;9346;52.006;4.720;2023-09-07T08:57:39;12.00;;;6.23;;
18435;SDS011;9346;52.006;4.720;2023-09-07T09:00:06;9.70;;;6.03;;
18435;SDS011;9346;52.006;4.720;2023-09-07T09:02:39;9.23;;;5.87;;
18435;SDS011;9346;52.006;4.720;2023-09-07T09:05:06;7.13;;;5.23;;
18435;SDS011;9346;52.006;4.720;2023-09-07T09:07:37;9.70;;;5.63;;
18435;SDS011;9346;52.006;4.720;2023-09-07T09:10:04;8.70;;;5.37;;
18435;SDS011;9346;52.006;4.720;2023-09-07T09:12:32;6.33;;;4.63;;
18435;SDS011;9346;52.006;4.720;2023-09-07T09:14:59;8.03;;;4.70;;
18435;SDS011;9346;52.006;4.720;2023-09-07T09:17:26;6.70;;;5.53;;
18435;SDS011;9346;52.006;4.720;2023-09-07T09:19:53;6.53;;;5.03;;
18435;SDS011;9346;52.006;4.720;2023-09-07T09:22:20;5.03;;;4.53;;
18435;SDS011;9346;52.006;4.720;2023-09-07T09:24:49;6.57;;;4.33;;
18435;SDS011;9346;52.006;4.720;2023-09-07T09:27:16;6.50;;;4.73;;
18435;SDS011;9346;52.006;4.720;2023-09-07T09:29:43;4.43;;;4.03;;
18435;SDS011;9346;52.006;4.720;2023-09-07T09:32:13;6.03;;;4.03;;
18435;SDS011;9346;52.006;4.720;2023-09-07T09:34:40;5.80;;;4.20;;
18435;SDS011;9346;52.006;4.720;2023-09-07T09:37:13;5.33;;;4.03;;
18435;SDS011;9346;52.006;4.720;2023-09-07T09:39:41;5.23;;;4.27;;
18435;SDS011;9346;52.006;4.720;2023-09-07T09:42:10;5.80;;;4.60;;
18435;SDS011;9346;52.006;4.720;2023-09-07T09:44:39;7.57;;;4.30;;
18435;SDS011;9346;52.006;4.720;2023-09-07T09:47:07;4.43;;;4.03;;
18435;SDS011;9346;52.006;4.720;2023-09-07T09:49:35;6.70;;;3.73;;
18435;SDS011;9346;52.006;4.720;2023-09-07T09:52:03;5.00;;;4.00;;
18435;SDS011;9346;52.006;4.720;2023-09-07T09:54:32;5.15;;;3.90;;
18435;SDS011;9346;52.006;4.720;2023-09-07T09:57:01;4.97;;;3.73;;
18435;SDS011;9346;52.006;4.720;2023-09-07T09:59:30;5.50;;;3.97;;
18435;SDS011;9346;52.006;4.720;2023-09-07T10:01:57;5.43;;;3.97;;
18435;SDS011;9346;52.006;4.720;2023-09-07T10:04:25;7.68;;;4.35;;
18435;SDS011;9346;52.006;4.720;2023-09-07T10:06:54;4.73;;;3.90;;
18435;SDS011;9346;52.006;4.720;2023-09-07T10:09:22;4.63;;;3.73;;
18435;SDS011;9346;52.006;4.720;2023-09-07T10:11:53;4.32;;;3.65;;
18435;SDS011;9346;52.006;4.720;2023-09-07T10:14:21;5.95;;;3.83;;
18435;SDS011;9346;52.006;4.720;2023-09-07T10:16:51;5.20;;;3.97;;
18435;SDS011;9346;52.006;4.720;2023-09-07T10:19:21;5.38;;;3.63;;
18435;SDS011;9346;52.006;4.720;2023-09-07T10:21:49;4.30;;;3.42;;
18435;SDS011;9346;52.006;4.720;2023-09-07T10:24:23;7.47;;;3.40;;
18435;SDS011;9346;52.006;4.720;2023-09-07T10:27:02;3.90;;;3.22;;
18435;SDS011;9346;52.006;4.720;2023-09-07T10:29:40;5.13;;;3.28;;
18435;SDS011;9346;52.006;4.720;2023-09-07T10:32:10;5.28;;;3.40;;
18435;SDS011;9346;52.006;4.720;2023-09-07T10:34:39;3.92;;;3.33;;
18435;SDS011;9346;52.006;4.720;2023-09-07T10:37:08;5.15;;;3.40;;
18435;SDS011;9346;52.006;4.720;2023-09-07T10:39:38;3.05;;;2.75;;
18435;SDS011;9346;52.006;4.720;2023-09-07T10:42:08;5.90;;;3.13;;
18435;SDS011;9346;52.006;4.720;2023-09-07T10:44:35;4.60;;;2.97;;
18435;SDS011;9346;52.006;4.720;2023-09-07T10:47:02;4.85;;;3.22;;
18435;SDS011;9346;52.006;4.720;2023-09-07T10:49:32;3.97;;;3.55;;
18435;SDS011;9346;52.006;4.720;2023-09-07T10:51:58;3.90;;;3.35;;
18435;SDS011;9346;52.006;4.720;2023-09-07T10:54:25;3.25;;;2.95;;
18435;SDS011;9346;52.006;4.720;2023-09-07T10:56:53;5.22;;;2.80;;
18435;SDS011;9346;52.006;4.720;2023-09-07T10:59:23;2.92;;;2.47;;
18435;SDS011;9346;52.006;4.720;2023-09-07T11:01:53;2.90;;;2.65;;
18435;SDS011;9346;52.006;4.720;2023-09-07T11:04:20;5.05;;;2.80;;
18435;SDS011;9346;52.006;4.720;2023-09-07T11:06:49;8.85;;;2.88;;
18435;SDS011;9346;52.006;4.720;2023-09-07T11:09:15;3.33;;;2.78;;
18435;SDS011;9346;52.006;4.720;2023-09-07T11:11:46;4.95;;;2.90;;
18435;SDS011;9346;52.006;4.720;2023-09-07T11:14:13;3.70;;;2.92;;
18435;SDS011;9346;52.006;4.720;2023-09-07T11:16:40;4.63;;;2.90;;
18435;SDS011;9346;52.006;4.720;2023-09-07T11:19:08;4.80;;;2.83;;
18435;SDS011;9346;52.006;4.720;2023-09-07T11:21:35;2.58;;;2.30;;
18435;SDS011;9346;52.006;4.720;2023-09-07T11:24:03;3.17;;;2.88;;
18435;SDS011;9346;52.006;4.720;2023-09-07T11:26:40;3.95;;;2.70;;
18435;SDS011;9346;52.006;4.720;2023-09-07T11:29:08;3.70;;;2.80;;
18435;SDS011;9346;52.006;4.720;2023-09-07T11:31:35;4.97;;;3.20;;
18435;SDS011;9346;52.006;4.720;2023-09-07T11:34:02;5.03;;;2.92;;
18435;SDS011;9346;52.006;4.720;2023-09-07T11:36:29;4.25;;;2.72;;
18435;SDS011;9346;52.006;4.720;2023-09-07T11:38:56;2.47;;;2.28;;
18435;SDS011;9346;52.006;4.720;2023-09-07T11:41:25;3.42;;;2.70;;
18435;SDS011;9346;52.006;4.720;2023-09-07T11:43:51;3.97;;;2.60;;
18435;SDS011;9346;52.006;4.720;2023-09-07T11:46:19;4.47;;;2.58;;
18435;SDS011;9346;52.006;4.720;2023-09-07T11:48:47;4.18;;;2.58;;
18435;SDS011;9346;52.006;4.720;2023-09-07T11:51:14;3.83;;;2.72;;
18435;SDS011;9346;52.006;4.720;2023-09-07T11:53:41;3.13;;;2.83;;
18435;SDS011;9346;52.006;4.720;2023-09-07T11:56:07;3.25;;;2.83;;
18435;SDS011;9346;52.006;4.720;2023-09-07T11:58:37;3.05;;;2.70;;
18435;SDS011;9346;52.006;4.720;2023-09-07T12:01:03;5.30;;;3.08;;
18435;SDS011;9346;52.006;4.720;2023-09-07T12:03:31;5.00;;;2.88;;
18435;SDS011;9346;52.006;4.720;2023-09-07T12:05:58;4.43;;;3.30;;
18435;SDS011;9346;52.006;4.720;2023-09-07T12:08:26;4.22;;;3.28;;
18435;SDS011;9346;52.006;4.720;2023-09-07T12:10:52;3.45;;;2.83;;
18435;SDS011;9346;52.006;4.720;2023-09-07T12:13:19;5.53;;;2.90;;
18435;SDS011;9346;52.006;4.720;2023-09-07T12:15:48;3.95;;;2.65;;
18435;SDS011;9346;52.006;4.720;2023-09-07T12:18:16;4.70;;;2.53;;
18435;SDS011;9346;52.006;4.720;2023-09-07T12:20:43;4.97;;;3.00;;
18435;SDS011;9346;52.006;4.720;2023-09-07T12:23:10;3.83;;;2.60;;
18435;SDS011;9346;52.006;4.720;2023-09-07T12:25:37;2.90;;;2.42;;
18435;SDS011;9346;52.006;4.720;2023-09-07T12:28:04;2.50;;;2.28;;
18435;SDS011;9346;52.006;4.720;2023-09-07T12:30:31;3.33;;;2.75;;
18435;SDS011;9346;52.006;4.720;2023-09-07T12:32:59;3.03;;;2.33;;
18435;SDS011;9346;52.006;4.720;2023-09-07T12:35:26;2.78;;;2.47;;
18435;SDS011;9346;52.006;4.720;2023-09-07T12:37:53;3.28;;;2.83;;
18435;SDS011;9346;52.006;4.720;2023-09-07T12:40:20;5.70;;;2.97;;
18435;SDS011;9346;52.006;4.720;2023-09-07T12:42:47;3.70;;;2.90;;
18435;SDS011;9346;52.006;4.720;2023-09-07T12:45:14;3.20;;;2.80;;
18435;SDS011;9346;52.006;4.720;2023-09-07T12:47:41;2.80;;;2.40;;
18435;SDS011;9346;52.006;4.720;2023-09-07T12:50:10;4.97;;;3.20;;
18435;SDS011;9346;52.006;4.720;2023-09-07T12:52:37;3.05;;;2.55;;
18435;SDS011;9346;52.006;4.720;2023-09-07T12:55:04;3.40;;;2.60;;
18435;SDS011;9346;52.006;4.720;2023-09-07T12:57:32;3.75;;;2.50;;
18435;SDS011;9346;52.006;4.720;2023-09-07T12:59:59;3.53;;;2.50;;
18435;SDS011;9346;52.006;4.720;2023-09-07T13:02:27;3.47;;;2.95;;
18435;SDS011;9346;52.006;4.720;2023-09-07T13:04:54;2.75;;;2.33;;
18435;SDS011;9346;52.006;4.720;2023-09-07T13:07:23;4.07;;;2.78;;
18435;SDS011;9346;52.006;4.720;2023-09-07T13:09:50;4.50;;;3.00;;
18435;SDS011;9346;52.006;4.720;2023-09-07T13:12:17;2.88;;;2.35;;
18435;SDS011;9346;52.006;4.720;2023-09-07T13:14:44;4.43;;;2.80;;
18435;SDS011;9346;52.006;4.720;2023-09-07T13:17:12;4.70;;;3.03;;
18435;SDS011;9346;52.006;4.720;2023-09-07T13:19:40;3.70;;;2.47;;
18435;SDS011;9346;52.006;4.720;2023-09-07T13:22:07;3.95;;;2.78;;
18435;SDS011;9346;52.006;4.720;2023-09-07T13:24:37;2.65;;;2.40;;
18435;SDS011;9346;52.006;4.720;2023-09-07T13:27:03;3.40;;;2.47;;
18435;SDS011;9346;52.006;4.720;2023-09-07T13:29:31;3.33;;;2.17;;
18435;SDS011;9346;52.006;4.720;2023-09-07T13:31:58;3.47;;;2.60;;
18435;SDS011;9346;52.006;4.720;2023-09-07T13:34:25;2.45;;;2.20;;
18435;SDS011;9346;52.006;4.720;2023-09-07T13:36:52;3.65;;;2.40;;
18435;SDS011;9346;52.006;4.720;2023-09-07T13:39:19;2.50;;;2.20;;
18435;SDS011;9346;52.006;4.720;2023-09-07T13:41:48;2.58;;;2.38;;
18435;SDS011;9346;52.006;4.720;2023-09-07T13:44:15;3.00;;;2.58;;
18435;SDS011;9346;52.006;4.720;2023-09-07T13:46:43;2.95;;;2.30;;
18435;SDS011;9346;52.006;4.720;2023-09-07T13:49:10;3.05;;;2.47;;
18435;SDS011;9346;52.006;4.720;2023-09-07T13:51:37;3.00;;;2.10;;
18435;SDS011;9346;52.006;4.720;2023-09-07T13:54:04;3.00;;;2.55;;
18435;SDS011;9346;52.006;4.720;2023-09-07T13:56:32;3.15;;;2.60;;
18435;SDS011;9346;52.006;4.720;2023-09-07T13:59:00;2.85;;;2.58;;
18435;SDS011;9346;52.006;4.720;2023-09-07T14:01:27;3.42;;;2.78;;
18435;SDS011;9346;52.006;4.720;2023-09-07T14:03:54;2.88;;;2.53;;
18435;SDS011;9346;52.006;4.720;2023-09-07T14:06:21;4.80;;;2.70;;
18435;SDS011;9346;52.006;4.720;2023-09-07T14:08:49;3.85;;;2.40;;
18435;SDS011;9346;52.006;4.720;2023-09-07T14:11:16;5.13;;;2.80;;
18435;SDS011;9346;52.006;4.720;2023-09-07T14:13:43;2.97;;;2.58;;
18435;SDS011;9346;52.006;4.720;2023-09-07T14:16:11;4.28;;;2.80;;
18435;SDS011;9346;52.006;4.720;2023-09-07T14:18:38;4.55;;;2.95;;
18435;SDS011;9346;52.006;4.720;2023-09-07T14:21:05;5.25;;;2.72;;
18435;SDS011;9346;52.006;4.720;2023-09-07T14:23:32;5.53;;;3.25;;
18435;SDS011;9346;52.006;4.720;2023-09-07T14:25:59;3.97;;;2.65;;
18435;SDS011;9346;52.006;4.720;2023-09-07T14:28:26;3.75;;;2.50;;
18435;SDS011;9346;52.006;4.720;2023-09-07T14:30:52;2.63;;;2.40;;
18435;SDS011;9346;52.006;4.720;2023-09-07T14:33:21;3.38;;;2.30;;
18435;SDS011;9346;52.006;4.720;2023-09-07T14:35:48;2.95;;;2.20;;
18435;SDS011;9346;52.006;4.720;2023-09-07T14:38:19;5.07;;;2.40;;
18435;SDS011;9346;52.006;4.720;2023-09-07T14:40:46;3.08;;;2.70;;
18435;SDS011;9346;52.006;4.720;2023-09-07T14:43:15;3.65;;;2.05;;
18435;SDS011;9346;52.006;4.720;2023-09-07T14:45:43;3.47;;;2.35;;
18435;SDS011;9346;52.006;4.720;2023-09-07T14:48:10;4.15;;;2.50;;
18435;SDS011;9346;52.006;4.720;2023-09-07T14:50:40;4.85;;;2.88;;
18435;SDS011;9346;52.006;4.720;2023-09-07T14:53:07;3.10;;;2.70;;
18435;SDS011;9346;52.006;4.720;2023-09-07T14:55:34;3.08;;;2.45;;
18435;SDS011;9346;52.006;4.720;2023-09-07T14:58:01;3.13;;;2.40;;
18435;SDS011;9346;52.006;4.720;2023-09-07T15:00:27;3.22;;;2.63;;